createdAt,value
2022-08-19T00:00:23.603Z,10.45
2022-08-19T00:02:25.143Z,9.73
2022-08-19T00:04:35.802Z,9.35
2022-08-19T00:06:40.288Z,9.57
2022-08-19T00:08:42.962Z,10.18
2022-08-19T00:10:44.819Z,9.63
2022-08-19T00:12:47.149Z,9.82
2022-08-19T00:14:48.856Z,9.85
2022-08-19T00:16:52.335Z,10.43
2022-08-19T00:18:56.396Z,9.48
2022-08-19T00:20:58.437Z,10.02
2022-08-19T00:23:00.128Z,10.30
2022-08-19T00:25:02.154Z,8.73
2022-08-19T00:27:25.561Z,10.43
2022-08-19T00:29:26.278Z,9.90
2022-08-19T00:31:29.022Z,9.65
2022-08-19T00:33:33.511Z,10.70
2022-08-19T00:35:35.394Z,10.95
2022-08-19T00:37:37.378Z,11.02
2022-08-19T00:39:39.153Z,10.43
2022-08-19T00:41:42.366Z,11.70
2022-08-19T00:43:43.956Z,12.05
2022-08-19T00:45:45.599Z,13.23
2022-08-19T00:47:47.266Z,12.00
2022-08-19T00:49:52.916Z,11.73
2022-08-19T00:52:01.203Z,12.48
2022-08-19T00:54:04.287Z,13.35
2022-08-19T00:56:08.223Z,12.75
2022-08-19T00:58:14.246Z,12.18
2022-08-19T01:00:19.561Z,13.43
2022-08-19T01:02:21.361Z,11.85
2022-08-19T01:04:22.888Z,12.10
2022-08-19T01:06:24.537Z,11.85
2022-08-19T01:08:26.203Z,12.10
2022-08-19T01:10:38.127Z,11.85
2022-08-19T01:12:40.697Z,12.98
2022-08-19T01:14:42.237Z,11.63
2022-08-19T01:16:46.620Z,11.75
2022-08-19T01:18:48.242Z,11.75
2022-08-19T01:20:49.921Z,12.35
2022-08-19T01:22:58.233Z,12.48
2022-08-19T01:24:59.962Z,12.65
2022-08-19T01:27:05.733Z,12.40
2022-08-19T01:29:13.196Z,12.52
2022-08-19T01:31:27.254Z,12.77
2022-08-19T01:33:31.854Z,12.38
2022-08-19T01:35:33.640Z,12.88
2022-08-19T01:37:52.371Z,12.85
2022-08-19T01:39:54.592Z,13.43
2022-08-19T01:41:56.302Z,13.57
2022-08-19T01:44:13.543Z,13.45
2022-08-19T01:46:24.606Z,13.05
2022-08-19T01:48:26.669Z,14.98
2022-08-19T01:50:28.676Z,15.00
2022-08-19T01:52:30.294Z,14.18
2022-08-19T01:54:33.025Z,14.63
2022-08-19T01:56:34.684Z,14.63
2022-08-19T01:58:41.703Z,16.10
2022-08-19T02:00:44.471Z,14.65
2022-08-19T02:02:46.312Z,15.80
2022-08-19T02:04:48.857Z,14.98
2022-08-19T02:06:50.395Z,15.45
2022-08-19T02:08:51.986Z,15.68
2022-08-19T02:10:59.065Z,15.00
2022-08-19T02:13:00.720Z,14.88
2022-08-19T02:15:03.376Z,16.20
2022-08-19T02:17:05.129Z,15.73
2022-08-19T02:19:06.867Z,15.73
2022-08-19T02:21:08.856Z,15.88
2022-08-19T02:23:13.797Z,15.70
2022-08-19T02:25:17.804Z,15.07
2022-08-19T02:27:19.445Z,15.45
2022-08-19T02:29:21.610Z,15.52
2022-08-19T02:31:26.664Z,16.20
2022-08-19T02:33:28.273Z,15.57
2022-08-19T02:35:29.724Z,15.73
2022-08-19T02:37:49.940Z,15.52
2022-08-19T02:39:51.592Z,16.10
2022-08-19T02:41:54.209Z,15.25
2022-08-19T02:44:26.462Z,16.02
2022-08-19T02:46:23.135Z,15.30
2022-08-19T02:48:26.840Z,14.90
2022-08-19T02:50:28.701Z,15.73
2022-08-19T02:52:30.234Z,15.40
2022-08-19T02:54:31.825Z,15.32
2022-08-19T02:56:37.021Z,16.08
2022-08-19T02:58:38.944Z,15.85
2022-08-19T03:00:50.195Z,16.27
2022-08-19T03:02:51.879Z,16.73
2022-08-19T03:04:53.441Z,16.98
2022-08-19T03:06:57.530Z,15.75
2022-08-19T03:09:01.071Z,15.65
2022-08-19T03:11:03.063Z,15.57
2022-08-19T03:13:04.881Z,15.60
2022-08-19T03:15:08.378Z,15.23
2022-08-19T03:17:10.337Z,16.55
2022-08-19T03:19:12.262Z,16.48
2022-08-19T03:21:24.885Z,16.25
2022-08-19T03:23:26.535Z,15.75
2022-08-19T03:25:28.152Z,15.18
2022-08-19T03:27:32.979Z,14.95
2022-08-19T03:29:43.928Z,16.50
2022-08-19T03:31:52.593Z,15.43
2022-08-19T03:33:54.811Z,15.13
2022-08-19T03:36:12.330Z,15.93
2022-08-19T03:38:13.959Z,15.15
2022-08-19T03:40:16.608Z,16.58
2022-08-19T03:42:45.452Z,15.57
2022-08-19T03:44:40.041Z,16.05
2022-08-19T03:46:42.346Z,17.63
2022-08-19T03:48:46.240Z,16.08
2022-08-19T03:50:47.733Z,16.17
2022-08-19T03:52:51.648Z,15.82
2022-08-19T03:54:53.377Z,16.40
2022-08-19T03:56:56.936Z,15.80
2022-08-19T03:59:00.633Z,15.50
2022-08-19T04:01:02.177Z,16.30
2022-08-19T04:03:03.832Z,16.50
2022-08-19T04:05:06.419Z,16.50
2022-08-19T04:07:10.364Z,16.35
2022-08-19T04:09:12.519Z,16.05
2022-08-19T04:11:42.672Z,16.25
2022-08-19T04:13:46.047Z,15.88
2022-08-19T04:15:47.615Z,16.15
2022-08-19T04:17:49.566Z,15.88
2022-08-19T04:19:51.040Z,15.35
2022-08-19T04:21:55.208Z,17.15
2022-08-19T04:23:58.136Z,16.80
2022-08-19T04:25:59.771Z,16.52
2022-08-19T04:28:01.556Z,16.20
2022-08-19T04:30:04.764Z,16.25
2022-08-19T04:32:08.984Z,16.40
2022-08-19T04:34:13.194Z,16.13
2022-08-19T04:36:23.447Z,16.92
2022-08-19T04:38:25.142Z,16.25
2022-08-19T04:40:45.230Z,15.60
2022-08-19T04:42:47.066Z,15.98
2022-08-19T04:44:48.946Z,15.35
2022-08-19T04:46:51.995Z,17.13
2022-08-19T04:48:54.546Z,16.08
2022-08-19T04:51:01.226Z,15.68
2022-08-19T04:53:02.846Z,16.75
2022-08-19T04:55:07.055Z,16.67
2022-08-19T04:57:10.766Z,18.42
2022-08-19T04:59:13.007Z,17.17
2022-08-19T05:01:20.878Z,17.60
2022-08-19T05:03:22.657Z,16.52
2022-08-19T05:05:24.449Z,17.38
2022-08-19T05:07:26.181Z,16.73
2022-08-19T05:09:36.139Z,16.17
2022-08-19T05:11:53.746Z,16.67
2022-08-19T05:13:56.062Z,17.15
2022-08-19T05:15:59.904Z,17.45
2022-08-19T05:18:20.048Z,16.95
2022-08-19T05:20:41.645Z,17.52
2022-08-19T05:22:47.488Z,18.08
2022-08-19T05:25:11.224Z,17.25
2022-08-19T05:27:11.420Z,17.92
2022-08-19T05:29:15.800Z,17.05
2022-08-19T05:31:17.432Z,16.45
2022-08-19T05:33:19.658Z,16.55
2022-08-19T05:35:21.273Z,17.42
2022-08-19T05:37:23.768Z,17.02
2022-08-19T05:39:29.337Z,17.10
2022-08-19T05:41:31.712Z,16.52
2022-08-19T05:43:33.501Z,16.45
2022-08-19T05:45:40.134Z,16.20
2022-08-19T05:47:42.130Z,16.15
2022-08-19T05:49:44.063Z,18.02
2022-08-19T05:51:46.074Z,15.90
2022-08-19T05:53:47.640Z,17.38
2022-08-19T05:55:49.249Z,16.95
2022-08-19T05:57:50.851Z,16.10
2022-08-19T05:59:58.254Z,16.50
2022-08-19T06:02:01.650Z,17.42
2022-08-19T06:04:04.436Z,16.40
2022-08-19T06:06:10.172Z,16.70
2022-08-19T06:08:12.045Z,15.43
2022-08-19T06:10:13.676Z,16.70
2022-08-19T06:12:15.337Z,17.83
2022-08-19T06:14:21.469Z,15.85
2022-08-19T06:16:32.589Z,17.40
2022-08-19T06:18:34.483Z,17.23
2022-08-19T06:20:55.029Z,17.55
2022-08-19T06:22:57.286Z,17.15
2022-08-19T06:24:58.835Z,18.20
2022-08-19T06:27:01.502Z,17.35
2022-08-19T06:29:06.921Z,19.35
2022-08-19T06:31:08.837Z,18.63
2022-08-19T06:33:10.352Z,17.77
2022-08-19T06:35:12.377Z,19.35
2022-08-19T06:37:15.256Z,18.17
2022-08-19T06:39:25.495Z,18.52
2022-08-19T06:41:28.050Z,18.80
2022-08-19T06:43:29.610Z,17.63
2022-08-19T06:45:34.934Z,17.48
2022-08-19T06:47:37.479Z,17.95
2022-08-19T06:49:40.195Z,20.63
2022-08-19T06:51:48.636Z,19.63
2022-08-19T06:53:53.447Z,19.27
2022-08-19T06:56:00.931Z,18.92
2022-08-19T06:58:04.751Z,17.85
2022-08-19T07:00:13.051Z,17.17
2022-08-19T07:02:15.118Z,16.45
2022-08-19T07:04:21.054Z,16.90
2022-08-19T07:08:45.800Z,16.50
2022-08-19T07:10:50.125Z,16.25
2022-08-19T07:12:51.929Z,16.10
2022-08-19T07:14:53.982Z,15.80
2022-08-19T07:16:58.131Z,16.17
2022-08-19T07:19:00.268Z,16.10
2022-08-19T07:21:17.397Z,16.55
2022-08-19T07:23:19.203Z,15.27
2022-08-19T07:25:22.923Z,15.68
2022-08-19T07:27:34.990Z,16.77
2022-08-19T07:29:37.339Z,15.43
2022-08-19T07:31:39.567Z,16.52
2022-08-19T07:33:44.278Z,16.17
2022-08-19T07:35:45.902Z,16.40
2022-08-19T07:37:47.547Z,16.85
2022-08-19T07:39:49.217Z,14.23
2022-08-19T07:41:51.570Z,14.35
2022-08-19T07:43:54.225Z,15.73
2022-08-19T07:45:58.159Z,14.50
2022-08-19T07:48:00.613Z,15.95
2022-08-19T07:50:05.326Z,16.20
2022-08-19T07:52:10.972Z,15.07
2022-08-19T07:54:12.781Z,14.77
2022-08-19T07:56:15.752Z,15.07
2022-08-19T07:58:20.043Z,15.68
2022-08-19T08:00:24.283Z,14.90
2022-08-19T08:02:26.389Z,14.90
2022-08-19T08:04:48.251Z,15.05
2022-08-19T08:07:08.361Z,14.93
2022-08-19T08:09:13.589Z,15.20
2022-08-19T08:11:21.070Z,14.98
2022-08-19T08:13:22.615Z,14.40
2022-08-19T08:15:25.118Z,16.42
2022-08-19T08:17:48.509Z,14.98
2022-08-19T08:19:51.921Z,14.82
2022-08-19T08:21:58.742Z,14.05
2022-08-19T08:26:07.199Z,14.30
2022-08-19T08:28:11.456Z,14.77
2022-08-19T08:30:24.360Z,14.65
2022-08-19T08:32:26.105Z,14.45
2022-08-19T08:34:28.140Z,13.95
2022-08-19T08:36:29.924Z,14.13
2022-08-19T08:38:38.362Z,12.93
2022-08-19T08:41:07.632Z,13.00
2022-08-19T08:43:32.383Z,12.93
2022-08-19T08:45:42.473Z,13.27
2022-08-19T08:47:48.705Z,12.93
2022-08-19T08:49:54.681Z,12.32
2022-08-19T08:52:32.045Z,13.02
2022-08-19T08:54:40.632Z,12.93
2022-08-19T08:56:54.019Z,11.88
2022-08-19T08:59:07.928Z,12.27
2022-08-19T09:01:12.308Z,12.32
2022-08-19T09:03:24.334Z,11.95
2022-08-19T09:05:41.481Z,12.38
2022-08-19T09:08:03.709Z,11.30
2022-08-19T09:10:21.355Z,12.07
2022-08-19T09:13:04.231Z,10.90
2022-08-19T09:15:14.795Z,11.77
2022-08-19T09:17:16.422Z,10.82
2022-08-19T09:19:22.489Z,11.23
2022-08-19T09:21:32.994Z,10.98
2022-08-19T09:23:36.714Z,11.40
2022-08-19T09:25:38.564Z,10.45
2022-08-19T09:27:43.706Z,10.98
2022-08-19T09:29:45.761Z,11.23
2022-08-19T09:31:48.679Z,11.98
2022-08-19T09:33:52.214Z,11.32
2022-08-19T09:36:08.364Z,11.57
2022-08-19T09:38:10.517Z,11.25
2022-08-19T09:40:13.556Z,11.45
2022-08-19T09:42:16.477Z,10.38
2022-08-19T09:44:31.508Z,12.10
2022-08-19T09:46:33.181Z,10.60
2022-08-19T09:48:35.093Z,10.38
2022-08-19T09:50:51.318Z,10.50
2022-08-19T09:52:56.982Z,10.52
2022-08-19T09:54:59.608Z,10.05
2022-08-19T09:57:03.801Z,10.65
2022-08-19T09:59:10.346Z,10.38
2022-08-19T10:01:21.930Z,10.15
2022-08-19T10:03:25.567Z,11.15
2022-08-19T10:05:50.304Z,9.85
2022-08-19T10:07:52.014Z,9.73
2022-08-19T10:09:53.869Z,9.68
2022-08-19T10:11:55.556Z,9.65
2022-08-19T10:13:57.428Z,10.52
2022-08-19T10:16:08.712Z,9.82
2022-08-19T10:18:12.452Z,8.63
2022-08-19T10:20:14.047Z,9.85
2022-08-19T10:22:16.378Z,9.93
2022-08-19T10:24:17.928Z,9.48
2022-08-19T10:26:24.177Z,9.50
2022-08-19T10:28:28.800Z,8.45
2022-08-19T10:30:32.148Z,8.98
2022-08-19T10:32:34.619Z,8.75
2022-08-19T10:34:38.070Z,9.07
2022-08-19T10:37:00.627Z,8.00
2022-08-19T10:39:09.354Z,9.10
2022-08-19T10:41:14.443Z,8.57
2022-08-19T10:43:17.237Z,9.10
2022-08-19T10:45:20.232Z,8.10
2022-08-19T10:47:25.657Z,8.68
2022-08-19T10:49:28.126Z,8.13
2022-08-19T10:51:49.575Z,8.73
2022-08-19T10:53:52.041Z,8.95
2022-08-19T10:56:12.187Z,10.00
2022-08-19T10:58:15.589Z,9.30
2022-08-19T11:00:17.541Z,8.73
2022-08-19T11:02:19.202Z,8.65
2022-08-19T11:04:21.477Z,8.75
2022-08-19T11:06:32.921Z,9.35
2022-08-19T11:08:38.319Z,9.52
2022-08-19T11:10:43.753Z,9.52
2022-08-19T11:12:55.285Z,8.63
2022-08-19T11:14:56.966Z,8.80
2022-08-19T11:16:58.510Z,9.05
2022-08-19T11:19:00.397Z,9.98
2022-08-19T11:21:21.178Z,9.80
2022-08-19T11:23:22.756Z,9.43
2022-08-19T11:25:24.534Z,9.88
2022-08-19T11:27:26.178Z,9.93
2022-08-19T11:29:28.894Z,10.38
2022-08-19T11:31:33.205Z,10.38
2022-08-19T11:33:34.927Z,10.13
2022-08-19T11:35:40.784Z,9.93
2022-08-19T11:37:42.643Z,10.45
2022-08-19T11:39:44.339Z,10.02
2022-08-19T11:41:55.290Z,11.32
2022-08-19T11:43:56.905Z,10.52
2022-08-19T11:45:58.973Z,10.43
2022-08-19T11:48:00.551Z,10.68
2022-08-19T11:50:02.195Z,10.27
2022-08-19T11:52:04.136Z,10.57
2022-08-19T11:54:07.011Z,11.07
2022-08-19T11:56:09.533Z,9.68
2022-08-19T11:58:19.023Z,10.40
2022-08-19T12:00:20.963Z,10.30
2022-08-19T12:02:22.893Z,11.30
2022-08-19T12:04:24.705Z,10.85
2022-08-19T12:06:29.623Z,10.40
2022-08-19T12:08:31.836Z,10.90
2022-08-19T12:10:34.172Z,10.75
2022-08-19T12:12:36.092Z,10.48
2022-08-19T12:14:37.755Z,10.00
2022-08-19T12:16:42.734Z,10.10
2022-08-19T12:18:52.184Z,9.52
2022-08-19T12:20:57.517Z,9.05
2022-08-19T12:22:59.070Z,10.63
2022-08-19T12:25:01.746Z,10.40
2022-08-19T12:27:04.007Z,9.20
2022-08-19T12:29:06.275Z,9.82
2022-08-19T12:31:08.815Z,9.13
2022-08-19T12:33:11.470Z,10.18
2022-08-19T12:35:13.256Z,9.50
2022-08-19T12:37:14.971Z,9.43
2022-08-19T12:39:16.481Z,8.75
2022-08-19T12:41:19.625Z,8.35
2022-08-19T12:43:21.651Z,9.38
2022-08-19T12:45:23.748Z,9.57
2022-08-19T12:47:27.363Z,10.15
2022-08-19T12:49:52.443Z,9.90
2022-08-19T12:51:53.354Z,9.80
2022-08-19T12:53:54.884Z,9.73
2022-08-19T12:55:58.237Z,9.88
2022-08-19T12:58:02.432Z,9.65
2022-08-19T13:00:12.323Z,8.98
2022-08-19T13:02:13.793Z,9.38
2022-08-19T13:04:16.221Z,9.23
2022-08-19T13:06:20.226Z,8.23
2022-08-19T13:08:22.006Z,9.10
2022-08-19T13:10:28.799Z,8.90
2022-08-19T13:12:30.448Z,9.15
2022-08-19T13:14:32.382Z,9.60
2022-08-19T13:16:35.499Z,8.98
2022-08-19T13:18:37.493Z,9.18
2022-08-19T13:20:41.681Z,9.18
2022-08-19T13:22:43.623Z,8.63
2022-08-19T13:24:47.485Z,8.50
2022-08-19T13:26:49.307Z,8.13
2022-08-19T13:29:09.602Z,6.78
2022-08-19T13:31:30.005Z,5.75
2022-08-19T13:33:33.092Z,6.30
2022-08-19T13:35:35.082Z,5.65
2022-08-19T13:37:42.754Z,5.95
2022-08-19T13:39:45.937Z,6.20
2022-08-19T13:41:49.040Z,5.68
2022-08-19T13:43:50.606Z,6.15
2022-08-19T13:45:56.436Z,5.93
2022-08-19T13:47:59.703Z,6.05
2022-08-19T13:50:04.333Z,6.10
2022-08-19T13:52:06.756Z,6.00
2022-08-19T13:54:09.452Z,5.80
2022-08-19T13:56:14.802Z,5.88
2022-08-19T13:58:16.336Z,5.72
2022-08-19T14:00:19.247Z,5.43
2022-08-19T14:02:21.363Z,5.25
2022-08-19T14:04:23.026Z,4.63
2022-08-19T14:06:24.682Z,4.57
2022-08-19T14:08:28.786Z,4.57
2022-08-19T14:10:32.609Z,4.10
2022-08-19T14:12:34.454Z,4.07
2022-08-19T14:14:40.369Z,4.57
2022-08-19T14:16:42.155Z,4.45
2022-08-19T14:18:44.433Z,4.20
2022-08-19T14:20:46.482Z,3.90
2022-08-19T14:22:49.154Z,4.10
2022-08-19T14:24:51.411Z,4.07
2022-08-19T14:26:53.173Z,4.15
2022-08-19T14:28:58.385Z,4.00
2022-08-19T14:31:00.200Z,3.90
2022-08-19T14:33:02.864Z,4.25
2022-08-19T14:35:06.239Z,4.05
2022-08-19T14:37:08.885Z,4.05
2022-08-19T14:39:15.794Z,3.67
2022-08-19T14:41:20.486Z,4.32
2022-08-19T14:43:23.180Z,4.10
2022-08-19T14:45:24.673Z,4.03
2022-08-19T14:47:27.750Z,4.20
2022-08-19T14:49:35.364Z,3.78
2022-08-19T14:51:47.928Z,4.30
2022-08-19T14:53:49.877Z,4.18
2022-08-19T14:55:52.042Z,4.50
2022-08-19T14:57:53.648Z,4.07
2022-08-19T14:59:55.262Z,3.83
2022-08-19T15:01:56.901Z,4.40
2022-08-19T15:03:58.465Z,4.30
2022-08-19T15:06:01.671Z,4.47
2022-08-19T15:08:04.837Z,4.30
2022-08-19T15:10:07.959Z,4.40
2022-08-19T15:12:09.594Z,5.72
2022-08-19T15:14:11.118Z,4.70
2022-08-19T15:16:18.402Z,4.93
2022-08-19T15:18:21.373Z,4.57
2022-08-19T15:20:23.608Z,4.55
2022-08-19T15:22:25.161Z,4.68
2022-08-19T15:24:27.883Z,4.45
2022-08-19T15:26:33.508Z,4.05
2022-08-19T15:28:36.971Z,4.95
2022-08-19T15:30:40.777Z,4.30
2022-08-19T15:32:44.263Z,4.15
2022-08-19T15:34:49.878Z,4.22
2022-08-19T15:36:55.099Z,4.20
2022-08-19T15:38:57.221Z,4.00
2022-08-19T15:41:18.967Z,4.15
2022-08-19T15:43:23.789Z,3.95
2022-08-19T15:45:32.580Z,4.13
2022-08-19T15:47:35.472Z,4.20
2022-08-19T15:49:37.257Z,3.97
2022-08-19T15:51:40.539Z,4.03
2022-08-19T15:53:43.114Z,3.90
2022-08-19T15:55:46.215Z,3.67
2022-08-19T15:58:06.707Z,4.07
2022-08-19T16:00:28.731Z,3.72
2022-08-19T16:02:48.933Z,3.88
2022-08-19T16:05:13.943Z,3.75
2022-08-19T16:07:15.552Z,3.88
2022-08-19T16:09:29.044Z,3.83
2022-08-19T16:11:39.491Z,3.70
2022-08-19T16:13:42.224Z,4.20
2022-08-19T16:15:44.927Z,3.80
2022-08-19T16:17:55.471Z,3.83
2022-08-19T16:19:58.812Z,4.05
2022-08-19T16:22:00.495Z,4.10
2022-08-19T16:24:06.759Z,4.07
2022-08-19T16:26:09.540Z,3.88
2022-08-19T16:28:11.165Z,3.75
2022-08-19T16:30:15.564Z,4.15
2022-08-19T16:32:17.255Z,3.97
2022-08-19T16:34:19.020Z,4.35
2022-08-19T16:36:24.631Z,4.50
2022-08-19T16:38:27.664Z,3.97
2022-08-19T16:40:29.736Z,4.50
2022-08-19T16:42:31.478Z,4.05
2022-08-19T16:44:32.980Z,4.28
2022-08-19T16:46:34.963Z,4.85
2022-08-19T16:48:42.873Z,4.38
2022-08-19T16:50:49.561Z,4.43
2022-08-19T16:52:51.950Z,4.75
2022-08-19T16:54:53.970Z,4.30
2022-08-19T16:56:56.211Z,5.22
2022-08-19T16:58:59.702Z,5.63
2022-08-19T17:01:07.201Z,5.13
2022-08-19T17:03:14.731Z,4.53
2022-08-19T17:05:17.017Z,4.60
2022-08-19T17:07:20.092Z,4.75
2022-08-19T17:09:26.057Z,4.80
2022-08-19T17:11:30.014Z,4.88
2022-08-19T17:13:31.642Z,4.97
2022-08-19T17:15:33.464Z,4.97
2022-08-19T17:17:35.820Z,5.18
2022-08-19T17:19:39.397Z,6.03
2022-08-19T17:21:41.220Z,6.70
2022-08-19T17:23:44.200Z,4.97
2022-08-19T17:25:46.155Z,4.85
2022-08-19T17:27:47.727Z,4.43
2022-08-19T17:29:49.397Z,4.47
2022-08-19T17:31:51.349Z,5.18
2022-08-19T17:33:53.011Z,4.95
2022-08-19T17:35:56.903Z,5.00
2022-08-19T17:38:02.930Z,4.65
2022-08-19T17:40:07.593Z,4.90
2022-08-19T17:42:10.744Z,4.88
2022-08-19T17:44:12.308Z,5.25
2022-08-19T17:46:18.689Z,5.18
2022-08-19T17:48:20.505Z,4.60
2022-08-19T17:50:23.517Z,4.85
2022-08-19T17:52:25.809Z,4.43
2022-08-19T17:54:33.339Z,4.78
2022-08-19T17:56:35.655Z,4.75
2022-08-19T17:58:40.468Z,4.50
2022-08-19T18:00:53.627Z,4.90
2022-08-19T18:02:58.659Z,4.53
2022-08-19T18:05:00.253Z,4.72
2022-08-19T18:07:04.279Z,4.57
2022-08-19T18:09:06.563Z,4.90
2022-08-19T18:11:09.249Z,5.20
2022-08-19T18:13:17.739Z,5.18
2022-08-19T18:15:20.719Z,4.90
2022-08-19T18:17:24.473Z,4.80
2022-08-19T18:19:26.884Z,4.68
2022-08-19T18:21:42.634Z,4.43
2022-08-19T18:23:46.090Z,4.15
2022-08-19T18:25:47.989Z,4.65
2022-08-19T18:27:54.703Z,4.30
2022-08-19T18:29:59.000Z,4.30
2022-08-19T18:32:00.689Z,4.18
2022-08-19T18:34:02.237Z,4.50
2022-08-19T18:36:04.590Z,4.38
2022-08-19T18:38:29.904Z,3.72
2022-08-19T18:40:50.050Z,3.92
2022-08-19T18:43:10.681Z,4.53
2022-08-19T18:45:30.960Z,4.70
2022-08-19T18:47:51.223Z,4.93
2022-08-19T18:49:52.943Z,5.28
2022-08-19T18:51:56.620Z,5.43
2022-08-19T18:53:59.724Z,5.15
2022-08-19T18:56:02.480Z,4.70
2022-08-19T18:58:04.569Z,4.70
2022-08-19T19:00:07.542Z,4.70
2022-08-19T19:02:11.049Z,4.20
2022-08-19T19:04:13.499Z,4.68
2022-08-19T19:06:27.538Z,4.65
2022-08-19T19:08:29.382Z,4.88
2022-08-19T19:10:31.239Z,5.03
2022-08-19T19:12:36.484Z,4.43
2022-08-19T19:14:49.770Z,5.00
2022-08-19T19:16:52.229Z,5.75
2022-08-19T19:18:53.862Z,5.35
2022-08-19T19:20:56.707Z,5.43
2022-08-19T19:22:58.583Z,5.07
2022-08-19T19:25:02.127Z,4.70
2022-08-19T19:27:06.952Z,5.65
2022-08-19T19:29:08.566Z,5.53
2022-08-19T19:31:13.484Z,5.20
2022-08-19T19:33:15.422Z,5.20
2022-08-19T19:35:17.175Z,5.60
2022-08-19T19:37:19.322Z,5.32
2022-08-19T19:39:30.564Z,4.88
2022-08-19T19:41:43.010Z,5.03
2022-08-19T19:43:44.670Z,5.28
2022-08-19T19:45:48.367Z,5.22
2022-08-19T19:47:50.223Z,5.65
2022-08-19T19:50:13.310Z,5.43
2022-08-19T19:52:14.101Z,5.85
2022-08-19T19:54:15.963Z,5.00
2022-08-19T19:56:17.440Z,5.00
2022-08-19T19:58:21.325Z,5.10
2022-08-19T20:00:30.596Z,4.70
2022-08-19T20:02:32.150Z,5.00
2022-08-19T20:04:33.782Z,4.93
2022-08-19T20:06:36.333Z,5.00
2022-08-19T20:08:56.673Z,6.00
2022-08-19T20:11:01.605Z,4.30
2022-08-19T20:13:04.609Z,5.40
2022-08-19T20:15:07.804Z,4.90
2022-08-19T20:17:09.249Z,4.68
2022-08-19T20:19:13.154Z,4.57
2022-08-19T20:21:14.671Z,5.10
2022-08-19T20:23:23.665Z,4.80
2022-08-19T20:25:25.299Z,5.30
2022-08-19T20:27:26.850Z,5.28
2022-08-19T20:29:39.270Z,5.80
2022-08-19T20:31:55.143Z,5.45
2022-08-19T20:33:59.921Z,5.70
2022-08-19T20:36:01.661Z,5.05
2022-08-19T20:38:08.689Z,5.38
2022-08-19T20:40:13.056Z,4.97
2022-08-19T20:42:14.846Z,4.95
2022-08-19T20:44:16.446Z,5.20
2022-08-19T20:46:18.398Z,4.38
2022-08-19T20:48:20.166Z,5.45
2022-08-19T20:50:21.988Z,5.30
2022-08-19T20:52:23.525Z,5.53
2022-08-19T20:54:26.210Z,5.22
2022-08-19T20:56:28.252Z,4.63
2022-08-19T20:58:31.521Z,4.80
2022-08-19T21:00:33.415Z,5.00
2022-08-19T21:02:35.284Z,5.13
2022-08-19T21:04:36.989Z,5.25
2022-08-19T21:06:39.922Z,5.03
2022-08-19T21:08:43.930Z,4.72
2022-08-19T21:10:48.048Z,5.18
2022-08-19T21:12:50.124Z,5.10
2022-08-19T21:14:53.865Z,5.20
2022-08-19T21:16:55.995Z,5.05
2022-08-19T21:18:57.732Z,5.10
2022-08-19T21:20:59.354Z,5.45
2022-08-19T21:23:04.901Z,6.03
2022-08-19T21:25:07.261Z,6.05
2022-08-19T21:27:08.816Z,7.22
2022-08-19T21:29:10.583Z,7.88
2022-08-19T21:31:12.389Z,7.45
2022-08-19T21:33:13.971Z,7.00
2022-08-19T21:35:15.802Z,11.55
2022-08-19T21:37:24.773Z,20.98
2022-08-19T21:39:27.119Z,22.73
2022-08-19T21:41:29.602Z,21.88
2022-08-19T21:43:31.864Z,18.38
2022-08-19T21:45:33.686Z,13.70
2022-08-19T21:47:35.370Z,11.32
2022-08-19T21:49:36.976Z,9.57
2022-08-19T21:51:38.562Z,7.05
2022-08-19T21:53:40.374Z,6.15
2022-08-19T21:55:52.808Z,5.90
2022-08-19T21:57:55.495Z,5.88
2022-08-19T21:59:57.435Z,5.18
2022-08-19T22:02:15.728Z,5.20
2022-08-19T22:04:20.833Z,4.60
2022-08-19T22:06:23.030Z,5.00
2022-08-19T22:08:26.360Z,4.45
2022-08-19T22:10:31.039Z,5.70
2022-08-19T22:12:35.374Z,4.93
2022-08-19T22:14:38.250Z,4.93
2022-08-19T22:16:39.910Z,5.07
2022-08-19T22:18:41.581Z,4.50
2022-08-19T22:20:43.580Z,4.32
2022-08-19T22:22:57.986Z,5.25
2022-08-19T22:25:13.704Z,4.50
2022-08-19T22:27:30.847Z,3.92
2022-08-19T22:29:34.055Z,4.53
2022-08-19T22:31:37.489Z,4.80
2022-08-19T22:33:39.261Z,4.78
2022-08-19T22:35:41.894Z,4.07
2022-08-19T22:37:43.651Z,4.72
2022-08-19T22:39:45.513Z,4.03
2022-08-19T22:41:47.137Z,4.30
2022-08-19T22:43:48.909Z,4.53
2022-08-19T22:45:52.400Z,4.13
2022-08-19T22:47:54.526Z,3.78
2022-08-19T22:49:56.353Z,3.60
2022-08-19T22:52:19.035Z,4.10
2022-08-19T22:54:20.754Z,4.70
2022-08-19T22:56:22.536Z,4.32
2022-08-19T22:58:27.856Z,4.32
2022-08-19T23:00:31.478Z,4.10
2022-08-19T23:02:52.326Z,4.65
2022-08-19T23:04:54.981Z,4.00
2022-08-19T23:06:56.586Z,4.20
2022-08-19T23:08:58.357Z,4.07
2022-08-19T23:10:59.991Z,4.60
2022-08-19T23:13:01.971Z,3.95
2022-08-19T23:15:17.191Z,3.97
2022-08-19T23:17:20.566Z,3.60
2022-08-19T23:19:22.645Z,4.20
2022-08-19T23:21:26.447Z,4.20
2022-08-19T23:23:28.428Z,4.30
2022-08-19T23:25:32.463Z,4.47
2022-08-19T23:27:52.393Z,4.30
2022-08-19T23:30:12.529Z,3.85
2022-08-19T23:32:18.461Z,4.15
2022-08-19T23:34:20.012Z,4.35
2022-08-19T23:36:22.763Z,4.38
2022-08-19T23:38:24.940Z,4.18
2022-08-19T23:40:27.000Z,4.32
2022-08-19T23:42:28.863Z,4.50
2022-08-19T23:44:30.421Z,4.45
2022-08-19T23:46:32.316Z,4.93
2022-08-19T23:48:48.170Z,5.03
2022-08-19T23:50:50.009Z,4.22
2022-08-19T23:52:54.745Z,4.65
2022-08-19T23:55:00.836Z,4.55
2022-08-19T23:57:02.397Z,4.72
2022-08-19T23:59:14.996Z,4.82
